sensor_id;sensor_type;location;lat;lon;timestamp;pressure;altitude;pressure_sealevel;temperature;humidity
76137;BME280;68622;53.128;17.966;2023-04-21T00:02:06;101899.73;;;8.75;59.51
76137;BME280;68622;53.128;17.966;2023-04-21T00:04:32;101900.59;;;8.72;59.20
76137;BME280;68622;53.128;17.966;2023-04-21T00:06:58;101897.47;;;8.70;59.75
76137;BME280;68622;53.128;17.966;2023-04-21T00:09:28;101900.63;;;8.66;59.60
76137;BME280;68622;53.128;17.966;2023-04-21T00:11:54;101896.39;;;8.62;60.42
76137;BME280;68622;53.128;17.966;2023-04-21T00:14:20;101896.91;;;8.56;59.81
76137;BME280;68622;53.128;17.966;2023-04-21T00:16:46;101898.83;;;8.51;60.32
76137;BME280;68622;53.128;17.966;2023-04-21T00:19:18;101898.88;;;8.47;60.26
76137;BME280;68622;53.128;17.966;2023-04-21T00:21:44;101895.41;;;8.41;60.01
76137;BME280;68622;53.128;17.966;2023-04-21T00:24:10;101898.70;;;8.38;60.57
76137;BME280;68622;53.128;17.966;2023-04-21T00:26:36;101899.02;;;8.33;61.49
76137;BME280;68622;53.128;17.966;2023-04-21T00:29:02;101897.05;;;8.28;61.03
76137;BME280;68622;53.128;17.966;2023-04-21T00:31:30;101893.35;;;8.23;60.91
76137;BME280;68622;53.128;17.966;2023-04-21T00:33:56;101891.04;;;8.21;61.33
76137;BME280;68622;53.128;17.966;2023-04-21T00:36:22;101887.08;;;8.19;61.10
76137;BME280;68622;53.128;17.966;2023-04-21T00:38:49;101885.13;;;8.16;60.79
76137;BME280;68622;53.128;17.966;2023-04-21T00:41:15;101885.70;;;8.13;60.55
76137;BME280;68622;53.128;17.966;2023-04-21T00:46:31;101890.12;;;8.02;61.83
76137;BME280;68622;53.128;17.966;2023-04-21T00:48:58;101887.32;;;7.96;61.55
76137;BME280;68622;53.128;17.966;2023-04-21T00:51:27;101887.18;;;7.93;61.65
76137;BME280;68622;53.128;17.966;2023-04-21T00:53:54;101893.45;;;7.92;62.16
76137;BME280;68622;53.128;17.966;2023-04-21T00:56:21;101890.38;;;7.92;61.77
76137;BME280;68622;53.128;17.966;2023-04-21T00:58:47;101891.05;;;7.92;61.60
76137;BME280;68622;53.128;17.966;2023-04-21T01:01:14;101890.02;;;7.92;61.33
76137;BME280;68622;53.128;17.966;2023-04-21T01:03:44;101891.17;;;7.90;61.80
76137;BME280;68622;53.128;17.966;2023-04-21T01:06:12;101893.59;;;7.87;61.72
76137;BME280;68622;53.128;17.966;2023-04-21T01:08:38;101890.58;;;7.82;62.00
76137;BME280;68622;53.128;17.966;2023-04-21T01:11:11;101890.93;;;7.76;61.96
76137;BME280;68622;53.128;17.966;2023-04-21T01:13:39;101889.02;;;7.65;62.26
76137;BME280;68622;53.128;17.966;2023-04-21T01:16:06;101887.26;;;7.59;61.81
76137;BME280;68622;53.128;17.966;2023-04-21T01:18:33;101890.20;;;7.59;61.54
76137;BME280;68622;53.128;17.966;2023-04-21T01:20:59;101889.69;;;7.59;61.79
76137;BME280;68622;53.128;17.966;2023-04-21T01:23:26;101887.38;;;7.60;62.65
76137;BME280;68622;53.128;17.966;2023-04-21T01:25:52;101888.14;;;7.71;62.82
76137;BME280;68622;53.128;17.966;2023-04-21T01:28:22;101890.95;;;7.70;62.16
76137;BME280;68622;53.128;17.966;2023-04-21T01:30:48;101894.53;;;7.68;63.33
76137;BME280;68622;53.128;17.966;2023-04-21T01:33:15;101888.62;;;7.56;62.51
76137;BME280;68622;53.128;17.966;2023-04-21T01:35:41;101889.98;;;7.62;62.09
76137;BME280;68622;53.128;17.966;2023-04-21T01:38:09;101888.13;;;7.61;62.57
76137;BME280;68622;53.128;17.966;2023-04-21T01:40:35;101890.02;;;7.56;62.82
76137;BME280;68622;53.128;17.966;2023-04-21T01:43:01;101890.72;;;7.47;64.08
76137;BME280;68622;53.128;17.966;2023-04-21T01:45:29;101887.77;;;7.41;63.74
76137;BME280;68622;53.128;17.966;2023-04-21T01:47:55;101887.42;;;7.38;63.36
76137;BME280;68622;53.128;17.966;2023-04-21T01:50:21;101888.73;;;7.36;63.03
76137;BME280;68622;53.128;17.966;2023-04-21T01:52:47;101896.10;;;7.34;64.21
76137;BME280;68622;53.128;17.966;2023-04-21T01:55:14;101892.16;;;7.28;64.26
76137;BME280;68622;53.128;17.966;2023-04-21T01:57:40;101896.23;;;7.19;64.70
76137;BME280;68622;53.128;17.966;2023-04-21T02:00:07;101895.45;;;7.15;63.95
76137;BME280;68622;53.128;17.966;2023-04-21T02:02:40;101893.92;;;7.08;64.64
76137;BME280;68622;53.128;17.966;2023-04-21T02:05:06;101893.23;;;7.05;64.38
76137;BME280;68622;53.128;17.966;2023-04-21T02:07:33;101896.17;;;7.02;64.14
76137;BME280;68622;53.128;17.966;2023-04-21T02:09:58;101892.13;;;7.00;64.20
76137;BME280;68622;53.128;17.966;2023-04-21T02:12:24;101894.06;;;7.03;63.99
76137;BME280;68622;53.128;17.966;2023-04-21T02:14:51;101893.60;;;7.05;64.02
76137;BME280;68622;53.128;17.966;2023-04-21T02:17:17;101897.08;;;7.04;64.45
76137;BME280;68622;53.128;17.966;2023-04-21T02:19:43;101893.85;;;7.00;64.04
76137;BME280;68622;53.128;17.966;2023-04-21T02:22:09;101891.10;;;6.96;63.99
76137;BME280;68622;53.128;17.966;2023-04-21T02:24:37;101892.77;;;6.94;63.68
76137;BME280;68622;53.128;17.966;2023-04-21T02:27:04;101892.11;;;6.94;63.53
76137;BME280;68622;53.128;17.966;2023-04-21T02:29:30;101891.10;;;6.97;63.35
76137;BME280;68622;53.128;17.966;2023-04-21T02:31:58;101891.70;;;6.95;63.69
76137;BME280;68622;53.128;17.966;2023-04-21T02:34:24;101887.69;;;6.93;63.93
76137;BME280;68622;53.128;17.966;2023-04-21T02:36:50;101890.47;;;6.89;64.55
76137;BME280;68622;53.128;17.966;2023-04-21T02:39:16;101896.23;;;6.84;64.85
76137;BME280;68622;53.128;17.966;2023-04-21T02:41:42;101894.30;;;6.78;64.58
76137;BME280;68622;53.128;17.966;2023-04-21T02:44:08;101897.67;;;6.74;65.17
76137;BME280;68622;53.128;17.966;2023-04-21T02:46:33;101893.33;;;6.68;65.15
76137;BME280;68622;53.128;17.966;2023-04-21T02:48:59;101890.29;;;6.64;64.72
76137;BME280;68622;53.128;17.966;2023-04-21T02:51:25;101889.70;;;6.62;64.23
76137;BME280;68622;53.128;17.966;2023-04-21T02:53:51;101888.46;;;6.59;64.56
76137;BME280;68622;53.128;17.966;2023-04-21T02:56:17;101886.56;;;6.56;64.47
76137;BME280;68622;53.128;17.966;2023-04-21T02:58:44;101890.80;;;6.54;64.38
76137;BME280;68622;53.128;17.966;2023-04-21T03:01:10;101893.52;;;6.52;64.57
76137;BME280;68622;53.128;17.966;2023-04-21T03:03:36;101887.08;;;6.49;64.39
76137;BME280;68622;53.128;17.966;2023-04-21T03:06:03;101884.63;;;6.46;64.47
76137;BME280;68622;53.128;17.966;2023-04-21T03:08:30;101886.55;;;6.43;64.54
76137;BME280;68622;53.128;17.966;2023-04-21T03:10:58;101888.25;;;6.40;64.64
76137;BME280;68622;53.128;17.966;2023-04-21T03:13:24;101891.71;;;6.36;65.62
76137;BME280;68622;53.128;17.966;2023-04-21T03:15:50;101887.91;;;6.34;64.78
76137;BME280;68622;53.128;17.966;2023-04-21T03:18:17;101891.27;;;6.32;64.83
76137;BME280;68622;53.128;17.966;2023-04-21T03:20:43;101888.36;;;6.31;64.79
76137;BME280;68622;53.128;17.966;2023-04-21T03:23:09;101889.87;;;6.32;64.99
76137;BME280;68622;53.128;17.966;2023-04-21T03:25:37;101890.17;;;6.33;64.84
76137;BME280;68622;53.128;17.966;2023-04-21T03:28:03;101891.45;;;6.32;65.15
76137;BME280;68622;53.128;17.966;2023-04-21T03:30:29;101887.88;;;6.31;64.80
76137;BME280;68622;53.128;17.966;2023-04-21T03:32:55;101885.38;;;6.29;64.79
76137;BME280;68622;53.128;17.966;2023-04-21T03:35:21;101885.51;;;6.27;64.45
76137;BME280;68622;53.128;17.966;2023-04-21T03:37:47;101889.42;;;6.24;64.72
76137;BME280;68622;53.128;17.966;2023-04-21T03:40:14;101888.30;;;6.23;64.62
76137;BME280;68622;53.128;17.966;2023-04-21T03:42:41;101888.64;;;6.23;64.52
76137;BME280;68622;53.128;17.966;2023-04-21T03:45:08;101887.06;;;6.23;64.88
76137;BME280;68622;53.128;17.966;2023-04-21T03:47:34;101884.51;;;6.23;65.13
76137;BME280;68622;53.128;17.966;2023-04-21T03:50:04;101884.85;;;6.23;65.08
76137;BME280;68622;53.128;17.966;2023-04-21T03:52:31;101884.11;;;6.24;65.11
76137;BME280;68622;53.128;17.966;2023-04-21T03:54:57;101882.38;;;6.24;64.98
76137;BME280;68622;53.128;17.966;2023-04-21T03:57:23;101881.93;;;6.22;65.04
76137;BME280;68622;53.128;17.966;2023-04-21T03:59:49;101878.52;;;6.22;64.80
76137;BME280;68622;53.128;17.966;2023-04-21T04:02:16;101880.30;;;6.24;64.80
76137;BME280;68622;53.128;17.966;2023-04-21T04:04:41;101881.04;;;6.26;64.69
76137;BME280;68622;53.128;17.966;2023-04-21T04:07:07;101881.00;;;6.30;64.82
76137;BME280;68622;53.128;17.966;2023-04-21T04:09:34;101883.10;;;6.33;65.20
76137;BME280;68622;53.128;17.966;2023-04-21T04:12:00;101884.39;;;6.35;65.23
76137;BME280;68622;53.128;17.966;2023-04-21T04:14:29;101884.62;;;6.37;65.38
76137;BME280;68622;53.128;17.966;2023-04-21T04:16:54;101889.05;;;6.38;64.86
76137;BME280;68622;53.128;17.966;2023-04-21T04:19:20;101886.58;;;6.39;65.07
76137;BME280;68622;53.128;17.966;2023-04-21T04:21:46;101889.92;;;6.41;65.08
76137;BME280;68622;53.128;17.966;2023-04-21T04:24:12;101890.84;;;6.43;65.37
76137;BME280;68622;53.128;17.966;2023-04-21T04:26:38;101885.02;;;6.46;65.30
76137;BME280;68622;53.128;17.966;2023-04-21T04:29:04;101890.11;;;6.54;65.30
76137;BME280;68622;53.128;17.966;2023-04-21T04:31:35;101891.42;;;6.59;65.36
76137;BME280;68622;53.128;17.966;2023-04-21T04:34:00;101886.59;;;6.62;65.74
76137;BME280;68622;53.128;17.966;2023-04-21T04:36:26;101885.88;;;6.65;65.71
76137;BME280;68622;53.128;17.966;2023-04-21T04:38:53;101882.19;;;6.70;65.36
76137;BME280;68622;53.128;17.966;2023-04-21T04:41:19;101878.82;;;6.75;65.32
76137;BME280;68622;53.128;17.966;2023-04-21T04:43:45;101880.52;;;6.81;65.92
76137;BME280;68622;53.128;17.966;2023-04-21T04:46:12;101878.98;;;6.88;65.53
76137;BME280;68622;53.128;17.966;2023-04-21T04:48:38;101878.39;;;6.96;65.59
76137;BME280;68622;53.128;17.966;2023-04-21T04:51:04;101881.14;;;7.05;65.39
76137;BME280;68622;53.128;17.966;2023-04-21T04:53:31;101877.09;;;7.12;65.27
76137;BME280;68622;53.128;17.966;2023-04-21T04:56:00;101876.88;;;7.19;65.37
76137;BME280;68622;53.128;17.966;2023-04-21T04:58:26;101876.52;;;7.30;65.21
76137;BME280;68622;53.128;17.966;2023-04-21T05:00:52;101877.58;;;7.38;65.24
76137;BME280;68622;53.128;17.966;2023-04-21T05:03:17;101872.59;;;7.47;64.87
76137;BME280;68622;53.128;17.966;2023-04-21T05:05:43;101874.04;;;7.55;64.71
76137;BME280;68622;53.128;17.966;2023-04-21T05:08:10;101873.79;;;7.62;64.91
76137;BME280;68622;53.128;17.966;2023-04-21T05:10:36;101879.00;;;7.74;64.39
76137;BME280;68622;53.128;17.966;2023-04-21T05:13:02;101877.02;;;7.87;64.44
76137;BME280;68622;53.128;17.966;2023-04-21T05:15:28;101876.46;;;8.05;64.27
76137;BME280;68622;53.128;17.966;2023-04-21T05:17:54;101877.11;;;8.26;63.73
76137;BME280;68622;53.128;17.966;2023-04-21T05:20:20;101875.41;;;8.46;63.45
76137;BME280;68622;53.128;17.966;2023-04-21T05:22:46;101877.91;;;8.67;63.25
76137;BME280;68622;53.128;17.966;2023-04-21T05:25:13;101877.99;;;8.88;62.64
76137;BME280;68622;53.128;17.966;2023-04-21T05:27:41;101874.23;;;9.12;62.06
76137;BME280;68622;53.128;17.966;2023-04-21T05:30:08;101877.14;;;9.34;61.61
76137;BME280;68622;53.128;17.966;2023-04-21T05:32:34;101878.59;;;9.57;60.94
76137;BME280;68622;53.128;17.966;2023-04-21T05:35:01;101878.45;;;9.77;60.47
76137;BME280;68622;53.128;17.966;2023-04-21T05:37:26;101877.84;;;9.97;60.10
76137;BME280;68622;53.128;17.966;2023-04-21T05:39:52;101878.19;;;10.15;60.57
76137;BME280;68622;53.128;17.966;2023-04-21T05:42:18;101878.33;;;10.36;59.72
76137;BME280;68622;53.128;17.966;2023-04-21T05:44:44;101879.73;;;10.53;58.86
76137;BME280;68622;53.128;17.966;2023-04-21T05:47:10;101876.63;;;10.68;57.24
76137;BME280;68622;53.128;17.966;2023-04-21T05:49:36;101873.88;;;10.82;56.35
76137;BME280;68622;53.128;17.966;2023-04-21T05:52:02;101871.63;;;10.99;55.75
76137;BME280;68622;53.128;17.966;2023-04-21T05:54:28;101872.70;;;11.18;56.17
76137;BME280;68622;53.128;17.966;2023-04-21T05:56:54;101871.04;;;11.38;56.17
76137;BME280;68622;53.128;17.966;2023-04-21T05:59:20;101870.93;;;11.56;55.26
76137;BME280;68622;53.128;17.966;2023-04-21T06:01:46;101870.88;;;11.73;55.34
76137;BME280;68622;53.128;17.966;2023-04-21T06:04:12;101867.98;;;11.91;55.19
76137;BME280;68622;53.128;17.966;2023-04-21T06:06:38;101871.70;;;12.08;54.61
76137;BME280;68622;53.128;17.966;2023-04-21T06:09:04;101868.84;;;12.23;54.37
76137;BME280;68622;53.128;17.966;2023-04-21T06:11:30;101868.34;;;12.34;52.40
76137;BME280;68622;53.128;17.966;2023-04-21T06:13:56;101863.09;;;12.52;53.12
76137;BME280;68622;53.128;17.966;2023-04-21T06:16:24;101858.74;;;12.68;52.43
76137;BME280;68622;53.128;17.966;2023-04-21T06:18:50;101859.56;;;12.83;53.50
76137;BME280;68622;53.128;17.966;2023-04-21T06:21:16;101856.60;;;12.99;52.75
76137;BME280;68622;53.128;17.966;2023-04-21T06:23:43;101855.48;;;13.15;52.86
76137;BME280;68622;53.128;17.966;2023-04-21T06:26:09;101853.84;;;13.24;51.10
76137;BME280;68622;53.128;17.966;2023-04-21T06:28:35;101852.02;;;13.34;50.11
76137;BME280;68622;53.128;17.966;2023-04-21T06:31:02;101855.02;;;13.42;51.10
76137;BME280;68622;53.128;17.966;2023-04-21T06:33:28;101853.37;;;13.47;49.82
76137;BME280;68622;53.128;17.966;2023-04-21T06:35:55;101851.63;;;13.55;50.78
76137;BME280;68622;53.128;17.966;2023-04-21T06:38:21;101851.13;;;13.63;49.96
76137;BME280;68622;53.128;17.966;2023-04-21T06:40:48;101852.40;;;13.74;50.81
76137;BME280;68622;53.128;17.966;2023-04-21T06:43:14;101854.22;;;13.83;49.46
76137;BME280;68622;53.128;17.966;2023-04-21T06:45:40;101853.59;;;13.86;48.21
76137;BME280;68622;53.128;17.966;2023-04-21T06:48:06;101851.13;;;13.90;48.54
76137;BME280;68622;53.128;17.966;2023-04-21T06:50:32;101849.24;;;13.98;49.23
76137;BME280;68622;53.128;17.966;2023-04-21T06:52:58;101848.96;;;14.06;48.22
76137;BME280;68622;53.128;17.966;2023-04-21T06:55:23;101849.05;;;14.13;48.41
76137;BME280;68622;53.128;17.966;2023-04-21T06:57:49;101848.48;;;14.18;46.76
76137;BME280;68622;53.128;17.966;2023-04-21T07:00:15;101849.32;;;14.24;47.48
76137;BME280;68622;53.128;17.966;2023-04-21T07:02:41;101846.23;;;14.29;47.01
76137;BME280;68622;53.128;17.966;2023-04-21T07:05:08;101844.26;;;14.36;46.72
76137;BME280;68622;53.128;17.966;2023-04-21T07:07:33;101845.59;;;14.41;45.21
76137;BME280;68622;53.128;17.966;2023-04-21T07:09:59;101844.94;;;14.41;44.74
76137;BME280;68622;53.128;17.966;2023-04-21T07:12:26;101840.56;;;14.55;46.16
76137;BME280;68622;53.128;17.966;2023-04-21T07:14:51;101840.64;;;14.70;47.16
76137;BME280;68622;53.128;17.966;2023-04-21T07:17:17;101840.09;;;14.84;46.57
76137;BME280;68622;53.128;17.966;2023-04-21T07:19:43;101841.00;;;14.98;45.62
76137;BME280;68622;53.128;17.966;2023-04-21T07:22:12;101835.72;;;15.07;45.77
76137;BME280;68622;53.128;17.966;2023-04-21T07:24:38;101834.04;;;15.11;43.56
76137;BME280;68622;53.128;17.966;2023-04-21T07:27:04;101837.84;;;15.19;45.20
76137;BME280;68622;53.128;17.966;2023-04-21T07:29:30;101836.88;;;15.28;45.26
76137;BME280;68622;53.128;17.966;2023-04-21T07:31:57;101836.48;;;15.36;44.39
76137;BME280;68622;53.128;17.966;2023-04-21T07:34:23;101832.17;;;15.46;44.69
76137;BME280;68622;53.128;17.966;2023-04-21T07:36:50;101830.10;;;15.56;44.89
76137;BME280;68622;53.128;17.966;2023-04-21T07:39:17;101829.20;;;15.61;42.60
76137;BME280;68622;53.128;17.966;2023-04-21T07:41:43;101825.06;;;15.69;43.77
76137;BME280;68622;53.128;17.966;2023-04-21T07:44:08;101824.54;;;15.82;44.43
76137;BME280;68622;53.128;17.966;2023-04-21T07:46:34;101821.32;;;15.94;41.64
76137;BME280;68622;53.128;17.966;2023-04-21T07:49:00;101824.95;;;16.06;43.19
76137;BME280;68622;53.128;17.966;2023-04-21T07:51:26;101828.34;;;16.11;41.80
76137;BME280;68622;53.128;17.966;2023-04-21T07:53:52;101821.17;;;16.20;42.50
76137;BME280;68622;53.128;17.966;2023-04-21T07:56:18;101823.21;;;16.28;42.09
76137;BME280;68622;53.128;17.966;2023-04-21T07:58:44;101816.92;;;16.29;40.31
76137;BME280;68622;53.128;17.966;2023-04-21T08:01:10;101812.94;;;16.33;39.89
76137;BME280;68622;53.128;17.966;2023-04-21T08:03:36;101811.36;;;16.35;41.90
76137;BME280;68622;53.128;17.966;2023-04-21T08:06:02;101810.06;;;16.36;40.50
76137;BME280;68622;53.128;17.966;2023-04-21T08:08:28;101810.39;;;16.39;40.86
76137;BME280;68622;53.128;17.966;2023-04-21T08:10:54;101807.64;;;16.41;38.87
76137;BME280;68622;53.128;17.966;2023-04-21T08:13:20;101808.11;;;16.47;39.82
76137;BME280;68622;53.128;17.966;2023-04-21T08:15:51;101807.16;;;16.53;40.11
76137;BME280;68622;53.128;17.966;2023-04-21T08:18:16;101806.84;;;16.63;40.52
76137;BME280;68622;53.128;17.966;2023-04-21T08:20:44;101804.21;;;16.63;37.76
76137;BME280;68622;53.128;17.966;2023-04-21T08:23:13;101802.73;;;16.66;38.52
76137;BME280;68622;53.128;17.966;2023-04-21T08:25:39;101802.58;;;16.72;39.07
76137;BME280;68622;53.128;17.966;2023-04-21T08:28:05;101803.16;;;16.78;38.50
76137;BME280;68622;53.128;17.966;2023-04-21T08:30:31;101809.69;;;16.83;38.85
76137;BME280;68622;53.128;17.966;2023-04-21T08:32:57;101801.94;;;16.84;37.53
76137;BME280;68622;53.128;17.966;2023-04-21T08:35:24;101806.30;;;16.86;38.01
76137;BME280;68622;53.128;17.966;2023-04-21T08:37:50;101798.96;;;16.89;38.10
76137;BME280;68622;53.128;17.966;2023-04-21T08:40:17;101794.45;;;16.99;38.72
76137;BME280;68622;53.128;17.966;2023-04-21T08:42:44;101788.09;;;17.10;37.40
76137;BME280;68622;53.128;17.966;2023-04-21T08:45:10;101793.79;;;17.20;37.32
76137;BME280;68622;53.128;17.966;2023-04-21T08:47:40;101792.02;;;17.25;37.62
76137;BME280;68622;53.128;17.966;2023-04-21T08:50:11;101790.23;;;17.31;36.38
76137;BME280;68622;53.128;17.966;2023-04-21T08:52:37;101790.67;;;17.42;36.91
76137;BME280;68622;53.128;17.966;2023-04-21T08:55:05;101797.04;;;17.47;35.70
76137;BME280;68622;53.128;17.966;2023-04-21T08:57:32;101790.27;;;17.50;35.94
76137;BME280;68622;53.128;17.966;2023-04-21T08:59:58;101789.70;;;17.54;36.13
76137;BME280;68622;53.128;17.966;2023-04-21T09:02:24;101787.13;;;17.58;36.06
76137;BME280;68622;53.128;17.966;2023-04-21T09:04:51;101787.34;;;17.61;35.38
76137;BME280;68622;53.128;17.966;2023-04-21T09:09:57;101784.97;;;17.73;35.22
76137;BME280;68622;53.128;17.966;2023-04-21T09:12:23;101785.03;;;17.79;34.64
76137;BME280;68622;53.128;17.966;2023-04-21T09:14:49;101783.31;;;17.83;35.26
76137;BME280;68622;53.128;17.966;2023-04-21T09:17:17;101785.09;;;17.83;34.61
76137;BME280;68622;53.128;17.966;2023-04-21T09:19:43;101783.19;;;17.90;34.73
76137;BME280;68622;53.128;17.966;2023-04-21T09:22:16;101774.00;;;17.89;33.12
76137;BME280;68622;53.128;17.966;2023-04-21T09:24:47;101775.61;;;17.92;33.45
76137;BME280;68622;53.128;17.966;2023-04-21T09:27:16;101772.27;;;17.94;33.77
76137;BME280;68622;53.128;17.966;2023-04-21T09:29:48;101769.89;;;17.98;33.80
76137;BME280;68622;53.128;17.966;2023-04-21T09:32:18;101764.53;;;18.04;33.07
76137;BME280;68622;53.128;17.966;2023-04-21T09:34:45;101772.60;;;18.07;32.65
76137;BME280;68622;53.128;17.966;2023-04-21T09:37:12;101773.66;;;18.09;32.60
76137;BME280;68622;53.128;17.966;2023-04-21T09:39:43;101772.04;;;18.08;31.99
76137;BME280;68622;53.128;17.966;2023-04-21T09:42:10;101771.68;;;18.06;32.15
76137;BME280;68622;53.128;17.966;2023-04-21T09:44:36;101770.40;;;18.08;32.38
76137;BME280;68622;53.128;17.966;2023-04-21T09:47:03;101770.37;;;18.10;31.59
76137;BME280;68622;53.128;17.966;2023-04-21T09:49:34;101772.36;;;18.11;31.98
76137;BME280;68622;53.128;17.966;2023-04-21T09:52:01;101758.72;;;18.17;32.70
76137;BME280;68622;53.128;17.966;2023-04-21T09:54:29;101763.72;;;18.22;32.01
76137;BME280;68622;53.128;17.966;2023-04-21T09:57:00;101757.10;;;18.27;32.45
76137;BME280;68622;53.128;17.966;2023-04-21T09:59:37;101755.95;;;18.36;33.09
76137;BME280;68622;53.128;17.966;2023-04-21T10:02:06;101750.63;;;18.41;31.81
76137;BME280;68622;53.128;17.966;2023-04-21T10:04:33;101748.57;;;18.47;32.62
76137;BME280;68622;53.128;17.966;2023-04-21T10:07:00;101749.03;;;18.51;32.72
76137;BME280;68622;53.128;17.966;2023-04-21T10:09:32;101743.17;;;18.52;32.16
76137;BME280;68622;53.128;17.966;2023-04-21T10:12:01;101744.38;;;18.49;32.16
76137;BME280;68622;53.128;17.966;2023-04-21T10:14:28;101749.45;;;18.49;32.48
76137;BME280;68622;53.128;17.966;2023-04-21T10:16:55;101751.52;;;18.52;32.16
76137;BME280;68622;53.128;17.966;2023-04-21T10:19:28;101741.82;;;18.57;31.82
76137;BME280;68622;53.128;17.966;2023-04-21T10:21:54;101738.70;;;18.56;31.35
76137;BME280;68622;53.128;17.966;2023-04-21T10:24:21;101727.38;;;18.55;31.54
76137;BME280;68622;53.128;17.966;2023-04-21T10:26:49;101731.52;;;18.56;30.77
76137;BME280;68622;53.128;17.966;2023-04-21T10:29:27;101726.52;;;18.58;31.39
76137;BME280;68622;53.128;17.966;2023-04-21T10:31:54;101720.09;;;18.63;31.31
76137;BME280;68622;53.128;17.966;2023-04-21T10:34:27;101718.02;;;18.66;30.85
76137;BME280;68622;53.128;17.966;2023-04-21T10:39:41;101729.96;;;18.62;29.90
76137;BME280;68622;53.128;17.966;2023-04-21T10:47:26;101716.76;;;18.63;30.48
76137;BME280;68622;53.128;17.966;2023-04-21T10:49:55;101721.55;;;18.64;30.46
76137;BME280;68622;53.128;17.966;2023-04-21T10:52:30;101710.83;;;18.67;30.23
76137;BME280;68622;53.128;17.966;2023-04-21T10:57:23;101701.19;;;18.72;30.59
76137;BME280;68622;53.128;17.966;2023-04-21T10:59:49;101709.75;;;18.67;29.66
76137;BME280;68622;53.128;17.966;2023-04-21T11:02:18;101713.08;;;18.77;30.49
76137;BME280;68622;53.128;17.966;2023-04-21T11:04:49;101703.46;;;18.81;30.04
76137;BME280;68622;53.128;17.966;2023-04-21T11:07:16;101702.73;;;18.83;29.78
76137;BME280;68622;53.128;17.966;2023-04-21T11:09:44;101702.30;;;18.82;29.74
76137;BME280;68622;53.128;17.966;2023-04-21T11:12:19;101698.02;;;18.80;29.54
76137;BME280;68622;53.128;17.966;2023-04-21T11:14:46;101705.56;;;18.75;29.20
76137;BME280;68622;53.128;17.966;2023-04-21T11:17:17;101697.07;;;18.69;29.72
76137;BME280;68622;53.128;17.966;2023-04-21T11:19:48;101701.25;;;18.70;29.94
76137;BME280;68622;53.128;17.966;2023-04-21T11:22:16;101690.83;;;18.68;30.61
76137;BME280;68622;53.128;17.966;2023-04-21T11:24:46;101689.48;;;18.69;30.83
76137;BME280;68622;53.128;17.966;2023-04-21T11:27:13;101686.15;;;18.74;30.57
76137;BME280;68622;53.128;17.966;2023-04-21T11:29:40;101682.20;;;18.76;30.33
76137;BME280;68622;53.128;17.966;2023-04-21T11:32:07;101676.10;;;18.76;29.67
76137;BME280;68622;53.128;17.966;2023-04-21T11:34:36;101666.55;;;18.78;30.27
76137;BME280;68622;53.128;17.966;2023-04-21T11:37:03;101667.86;;;18.77;30.06
76137;BME280;68622;53.128;17.966;2023-04-21T11:39:29;101664.90;;;18.81;30.38
76137;BME280;68622;53.128;17.966;2023-04-21T11:41:55;101666.34;;;18.83;30.43
76137;BME280;68622;53.128;17.966;2023-04-21T11:44:40;101670.30;;;18.81;30.42
76137;BME280;68622;53.128;17.966;2023-04-21T11:47:21;101659.74;;;18.86;30.80
76137;BME280;68622;53.128;17.966;2023-04-21T11:49:59;101658.93;;;18.88;30.56
76137;BME280;68622;53.128;17.966;2023-04-21T11:52:33;101658.86;;;18.87;30.01
76137;BME280;68622;53.128;17.966;2023-04-21T11:55:09;101660.94;;;18.88;30.29
76137;BME280;68622;53.128;17.966;2023-04-21T11:57:38;101658.33;;;18.91;30.31
76137;BME280;68622;53.128;17.966;2023-04-21T12:00:06;101649.37;;;18.82;29.73
76137;BME280;68622;53.128;17.966;2023-04-21T12:02:35;101654.61;;;18.88;30.33
76137;BME280;68622;53.128;17.966;2023-04-21T12:05:09;101647.80;;;18.89;30.36
76137;BME280;68622;53.128;17.966;2023-04-21T12:07:37;101640.91;;;18.94;30.16
76137;BME280;68622;53.128;17.966;2023-04-21T12:10:11;101636.56;;;18.95;30.09
76137;BME280;68622;53.128;17.966;2023-04-21T12:12:39;101636.93;;;18.93;29.97
76137;BME280;68622;53.128;17.966;2023-04-21T12:15:10;101638.84;;;18.92;30.14
76137;BME280;68622;53.128;17.966;2023-04-21T12:17:43;101634.77;;;18.99;30.67
76137;BME280;68622;53.128;17.966;2023-04-21T12:20:10;101632.88;;;19.08;31.14
76137;BME280;68622;53.128;17.966;2023-04-21T12:22:36;101632.77;;;19.14;30.57
76137;BME280;68622;53.128;17.966;2023-04-21T12:25:03;101620.63;;;19.15;29.94
76137;BME280;68622;53.128;17.966;2023-04-21T12:27:30;101614.65;;;19.19;30.53
76137;BME280;68622;53.128;17.966;2023-04-21T12:29:56;101612.64;;;19.22;30.70
76137;BME280;68622;53.128;17.966;2023-04-21T12:32:23;101610.02;;;19.24;30.58
76137;BME280;68622;53.128;17.966;2023-04-21T12:34:49;101611.65;;;19.23;30.40
76137;BME280;68622;53.128;17.966;2023-04-21T12:37:15;101610.46;;;19.20;30.44
76137;BME280;68622;53.128;17.966;2023-04-21T12:39:41;101607.78;;;19.19;30.49
76137;BME280;68622;53.128;17.966;2023-04-21T12:42:07;101606.87;;;19.22;30.62
76137;BME280;68622;53.128;17.966;2023-04-21T12:44:34;101606.65;;;19.18;29.97
76137;BME280;68622;53.128;17.966;2023-04-21T12:47:00;101603.09;;;19.13;29.82
76137;BME280;68622;53.128;17.966;2023-04-21T12:49:26;101598.63;;;19.17;30.42
76137;BME280;68622;53.128;17.966;2023-04-21T12:51:52;101593.95;;;19.16;30.10
76137;BME280;68622;53.128;17.966;2023-04-21T12:54:18;101596.04;;;19.20;30.83
76137;BME280;68622;53.128;17.966;2023-04-21T12:56:44;101594.17;;;19.25;30.30
76137;BME280;68622;53.128;17.966;2023-04-21T12:59:10;101589.89;;;19.23;29.94
76137;BME280;68622;53.128;17.966;2023-04-21T13:01:37;101587.20;;;19.29;30.54